createdAt,value
2022-10-10T00:01:13.345Z,58.20
2022-10-10T00:03:42.833Z,58.30
2022-10-10T00:06:11.431Z,58.30
2022-10-10T00:08:39.792Z,58.20
2022-10-10T00:11:08.423Z,58.20
2022-10-10T00:13:36.598Z,58.20
2022-10-10T00:16:04.464Z,58.30
2022-10-10T00:18:32.933Z,58.30
2022-10-10T00:21:02.209Z,58.20
2022-10-10T00:23:30.052Z,58.20
2022-10-10T00:25:57.845Z,58.20
2022-10-10T00:28:25.768Z,58.30
2022-10-10T00:30:53.830Z,58.30
2022-10-10T00:33:21.690Z,58.20
2022-10-10T00:35:49.900Z,58.30
2022-10-10T00:38:19.028Z,58.20
2022-10-10T00:40:48.388Z,58.30
2022-10-10T00:43:17.145Z,58.40
2022-10-10T00:45:46.827Z,58.20
2022-10-10T00:48:16.946Z,58.30
2022-10-10T00:50:49.197Z,58.40
2022-10-10T00:53:21.389Z,58.40
2022-10-10T00:55:49.580Z,58.30
2022-10-10T00:58:18.610Z,58.30
2022-10-10T01:00:46.690Z,58.20
2022-10-10T01:03:14.656Z,58.40
2022-10-10T01:05:43.410Z,58.40
2022-10-10T01:08:11.699Z,58.50
2022-10-10T01:10:54.303Z,58.50
2022-10-10T01:13:28.933Z,58.70
2022-10-10T01:16:01.285Z,58.80
2022-10-10T01:18:37.292Z,58.80
2022-10-10T01:21:16.494Z,59.90
2022-10-10T01:24:30.695Z,58.80
2022-10-10T01:27:31.637Z,58.70
2022-10-10T01:30:05.020Z,58.80
2022-10-10T01:32:37.407Z,58.80
2022-10-10T01:35:15.857Z,58.70
2022-10-10T01:37:55.432Z,58.70
2022-10-10T01:40:30.814Z,58.80
2022-10-10T01:43:02.536Z,58.90
2022-10-10T01:45:32.368Z,58.80
2022-10-10T01:48:02.967Z,58.90
2022-10-10T01:50:34.589Z,58.80
2022-10-10T01:53:12.637Z,58.90
2022-10-10T01:55:52.623Z,59.20
2022-10-10T01:58:38.319Z,59.20
2022-10-10T02:01:14.913Z,59.30
2022-10-10T02:03:46.561Z,59.20
2022-10-10T02:06:22.187Z,59.20
2022-10-10T02:08:54.225Z,59.20
2022-10-10T02:11:22.715Z,59.40
2022-10-10T02:13:54.148Z,59.40
2022-10-10T02:16:29.716Z,59.40
2022-10-10T02:18:59.755Z,59.50
2022-10-10T02:21:28.191Z,59.40
2022-10-10T02:24:00.278Z,59.40
2022-10-10T02:26:30.119Z,59.60
2022-10-10T02:29:01.727Z,59.50
2022-10-10T02:31:36.188Z,59.50
2022-10-10T02:34:10.183Z,59.60
2022-10-10T02:36:39.875Z,59.60
2022-10-10T02:39:08.773Z,59.70
2022-10-10T02:41:38.435Z,59.80
2022-10-10T02:44:06.862Z,59.80
2022-10-10T02:46:36.021Z,59.80
2022-10-10T02:49:03.770Z,60.00
2022-10-10T02:51:31.667Z,59.90
2022-10-10T02:53:59.476Z,59.80
2022-10-10T02:56:27.505Z,59.80
2022-10-10T02:58:55.287Z,59.90
2022-10-10T03:01:23.168Z,60.10
2022-10-10T03:03:52.352Z,60.10
2022-10-10T03:06:20.138Z,60.20
2022-10-10T03:08:47.936Z,60.20
2022-10-10T03:11:15.690Z,60.20
2022-10-10T03:13:43.492Z,60.20
2022-10-10T03:16:11.320Z,60.20
2022-10-10T03:18:39.081Z,60.40
2022-10-10T03:21:08.757Z,60.40
2022-10-10T03:23:36.772Z,60.40
2022-10-10T03:26:05.692Z,60.30
2022-10-10T03:28:33.549Z,60.40
2022-10-10T03:31:01.356Z,60.40
2022-10-10T03:33:29.106Z,60.40
2022-10-10T03:35:56.938Z,60.30
2022-10-10T03:38:26.060Z,60.30
2022-10-10T03:40:53.873Z,60.50
2022-10-10T03:43:21.885Z,60.50
2022-10-10T03:45:49.647Z,60.60
2022-10-10T03:48:17.642Z,60.70
2022-10-10T03:50:45.460Z,60.80
2022-10-10T03:53:13.278Z,60.80
2022-10-10T03:55:43.572Z,60.70
2022-10-10T03:58:12.152Z,60.70
2022-10-10T04:00:40.263Z,60.50
2022-10-10T04:03:09.272Z,60.70
2022-10-10T04:05:38.963Z,60.90
2022-10-10T04:08:07.975Z,61.10
2022-10-10T04:10:35.747Z,61.00
2022-10-10T04:13:04.868Z,61.00
2022-10-10T04:15:32.827Z,61.10
2022-10-10T04:18:00.943Z,61.10
2022-10-10T04:20:28.845Z,61.30
2022-10-10T04:22:56.623Z,61.30
2022-10-10T04:25:24.589Z,61.40
2022-10-10T04:27:53.615Z,61.30
2022-10-10T04:30:25.073Z,61.20
2022-10-10T04:32:53.009Z,61.40
2022-10-10T04:35:21.028Z,61.30
2022-10-10T04:37:48.778Z,61.30
2022-10-10T04:40:16.650Z,61.40
2022-10-10T04:42:44.423Z,61.40
2022-10-10T04:45:12.433Z,61.40
2022-10-10T04:47:41.911Z,61.30
2022-10-10T04:50:10.083Z,61.50
2022-10-10T04:52:37.863Z,61.50
2022-10-10T04:55:06.395Z,61.50
2022-10-10T04:57:34.267Z,61.40
2022-10-10T05:00:02.066Z,61.40
2022-10-10T05:02:29.863Z,61.60
2022-10-10T05:04:58.939Z,61.60
2022-10-10T05:07:26.712Z,61.40
2022-10-10T05:09:54.492Z,61.60
2022-10-10T05:12:22.246Z,62.40
2022-10-10T05:14:50.023Z,61.50
2022-10-10T05:17:17.755Z,61.40
2022-10-10T05:19:45.579Z,61.50
2022-10-10T05:22:14.676Z,61.60
2022-10-10T05:24:42.477Z,61.60
2022-10-10T05:27:10.289Z,61.80
2022-10-10T05:29:38.043Z,61.80
2022-10-10T05:32:10.100Z,61.80
2022-10-10T05:34:38.343Z,61.70
2022-10-10T05:37:06.355Z,61.80
2022-10-10T05:39:36.129Z,61.80
2022-10-10T05:42:04.898Z,61.90
2022-10-10T05:44:33.727Z,62.00
2022-10-10T05:47:01.678Z,62.00
2022-10-10T05:49:29.466Z,62.00
2022-10-10T05:51:57.226Z,61.80
2022-10-10T05:54:25.067Z,62.20
2022-10-10T05:56:54.146Z,62.20
2022-10-10T05:59:21.899Z,62.10
2022-10-10T06:01:49.703Z,62.10
2022-10-10T06:04:17.479Z,62.50
2022-10-10T06:06:45.618Z,62.40
2022-10-10T06:09:13.348Z,62.40
2022-10-10T06:11:41.155Z,62.50
2022-10-10T06:14:10.524Z,62.70
2022-10-10T06:16:39.598Z,62.40
2022-10-10T06:19:10.319Z,62.40
2022-10-10T06:21:41.756Z,62.60
2022-10-10T06:24:10.687Z,62.50
2022-10-10T06:26:38.484Z,62.60
2022-10-10T06:29:07.553Z,62.80
2022-10-10T06:31:39.419Z,62.90
2022-10-10T06:34:07.575Z,62.90
2022-10-10T06:36:35.733Z,62.80
2022-10-10T06:39:03.727Z,62.80
2022-10-10T06:41:31.490Z,63.30
2022-10-10T06:43:59.264Z,62.80
2022-10-10T06:46:27.079Z,62.60
2022-10-10T06:48:56.177Z,62.80
2022-10-10T06:51:25.653Z,62.70
2022-10-10T06:53:53.415Z,62.90
2022-10-10T06:56:27.206Z,62.70
2022-10-10T06:58:56.270Z,62.70
2022-10-10T07:01:25.622Z,62.90
2022-10-10T07:03:53.759Z,62.90
2022-10-10T07:06:22.977Z,62.70
2022-10-10T07:08:50.849Z,62.60
2022-10-10T07:11:18.744Z,62.80
2022-10-10T07:13:46.487Z,62.90
2022-10-10T07:16:14.248Z,63.00
2022-10-10T07:18:42.020Z,63.10
2022-10-10T07:21:10.412Z,63.00
2022-10-10T07:23:39.544Z,62.90
2022-10-10T07:26:10.664Z,63.00
2022-10-10T07:28:38.599Z,63.10
2022-10-10T07:31:08.708Z,63.00
2022-10-10T07:33:38.029Z,62.90
2022-10-10T07:36:06.648Z,63.00
2022-10-10T07:38:34.677Z,63.10
2022-10-10T07:41:06.379Z,63.10
2022-10-10T07:43:34.309Z,63.20
2022-10-10T07:46:03.371Z,62.90
2022-10-10T07:48:33.077Z,63.00
2022-10-10T07:51:00.851Z,63.10
2022-10-10T07:53:28.569Z,63.20
2022-10-10T07:55:56.302Z,63.00
2022-10-10T07:58:25.397Z,63.20
2022-10-10T08:01:02.196Z,63.00
2022-10-10T08:03:29.953Z,63.30
2022-10-10T08:05:57.813Z,63.20
2022-10-10T08:08:25.611Z,63.10
2022-10-10T08:10:53.382Z,63.10
2022-10-10T08:13:21.136Z,63.10
2022-10-10T08:15:52.894Z,63.30
2022-10-10T08:18:20.892Z,63.10
2022-10-10T08:20:48.828Z,63.10
2022-10-10T08:23:17.639Z,63.10
2022-10-10T08:25:47.171Z,63.20
2022-10-10T08:28:14.975Z,62.90
2022-10-10T08:30:42.757Z,62.80
2022-10-10T08:33:11.847Z,62.90
2022-10-10T08:35:40.020Z,62.90
2022-10-10T08:38:08.932Z,63.00
2022-10-10T08:40:43.253Z,63.00
2022-10-10T08:43:21.308Z,63.00
2022-10-10T08:45:50.293Z,63.10
2022-10-10T08:48:25.037Z,63.20
2022-10-10T08:50:56.133Z,63.20
2022-10-10T08:53:29.157Z,63.10
2022-10-10T08:55:57.224Z,63.10
2022-10-10T08:58:29.948Z,63.00
2022-10-10T09:01:05.378Z,63.10
2022-10-10T09:03:38.539Z,63.30
2022-10-10T09:06:23.380Z,63.30
2022-10-10T09:08:59.259Z,63.20
2022-10-10T09:11:41.378Z,63.00
2022-10-10T09:14:19.874Z,63.30
2022-10-10T09:16:53.882Z,63.10
2022-10-10T09:19:34.441Z,63.20
2022-10-10T09:22:07.494Z,63.30
2022-10-10T09:24:42.555Z,63.40
2022-10-10T09:27:15.920Z,63.20
2022-10-10T09:29:48.778Z,63.00
2022-10-10T09:32:20.481Z,63.10
2022-10-10T09:34:54.496Z,63.30
2022-10-10T09:37:45.710Z,63.40
2022-10-10T09:40:22.302Z,63.50
2022-10-10T09:42:50.325Z,63.60
2022-10-10T09:45:20.876Z,63.30
2022-10-10T09:47:51.593Z,63.50
2022-10-10T09:50:20.756Z,63.20
2022-10-10T09:52:49.264Z,63.50
2022-10-10T09:55:27.499Z,63.50
2022-10-10T09:57:57.628Z,63.30
2022-10-10T10:00:35.809Z,63.40
2022-10-10T10:03:13.342Z,63.50
2022-10-10T10:05:46.228Z,63.80
2022-10-10T10:08:23.096Z,63.50
2022-10-10T10:10:51.237Z,63.50
2022-10-10T10:13:25.255Z,63.70
2022-10-10T10:16:01.809Z,63.90
2022-10-10T10:18:30.639Z,64.00
2022-10-10T10:21:17.495Z,63.70
2022-10-10T10:23:52.107Z,63.80
2022-10-10T10:26:22.967Z,63.80
2022-10-10T10:28:53.090Z,64.00
2022-10-10T10:31:30.946Z,64.40
2022-10-10T10:34:11.449Z,64.30
2022-10-10T10:36:48.858Z,64.50
2022-10-10T10:39:34.559Z,64.10
2022-10-10T10:42:11.678Z,64.20
2022-10-10T10:44:45.426Z,64.10
2022-10-10T10:50:24.233Z,65.40
2022-10-10T10:53:05.155Z,64.90
2022-10-10T10:55:42.721Z,65.30
2022-10-10T10:59:16.680Z,65.00
2022-10-10T11:01:55.773Z,65.20
2022-10-10T11:05:19.330Z,64.80
2022-10-10T11:07:45.263Z,65.40
2022-10-10T11:10:21.356Z,64.80
2022-10-10T11:13:01.603Z,65.40
2022-10-10T11:16:01.255Z,66.10
2022-10-10T11:18:28.256Z,65.80
2022-10-10T11:21:03.466Z,65.80
2022-10-10T11:23:36.606Z,66.30
2022-10-10T11:26:09.704Z,66.10
2022-10-10T11:28:48.599Z,66.20
2022-10-10T11:31:21.873Z,65.60
2022-10-10T11:33:56.286Z,65.90
2022-10-10T11:36:27.432Z,66.60
2022-10-10T11:38:59.934Z,66.40
2022-10-10T11:41:36.544Z,66.50
2022-10-10T11:44:11.272Z,66.90
2022-10-10T11:46:44.236Z,66.40
2022-10-10T11:49:20.761Z,67.20
2022-10-10T11:52:32.512Z,67.70
2022-10-10T11:55:07.335Z,67.80
2022-10-10T11:57:41.520Z,67.40
2022-10-10T12:00:13.823Z,66.90
2022-10-10T12:02:43.543Z,66.60
2022-10-10T12:05:22.464Z,68.00
2022-10-10T12:08:03.621Z,67.60
2022-10-10T12:10:36.055Z,67.40
2022-10-10T12:13:26.604Z,66.90
2022-10-10T12:15:57.053Z,67.00
2022-10-10T12:18:28.820Z,67.20
2022-10-10T12:21:09.049Z,67.30
2022-10-10T12:23:37.962Z,67.20
2022-10-10T12:26:06.028Z,66.80
2022-10-10T12:28:36.143Z,66.80
2022-10-10T12:31:29.995Z,67.20
2022-10-10T12:34:36.694Z,66.90
2022-10-10T12:37:25.866Z,67.40
2022-10-10T12:40:22.387Z,67.30
2022-10-10T12:43:20.386Z,67.50
2022-10-10T12:46:07.688Z,67.70
2022-10-10T12:48:37.376Z,67.10
2022-10-10T12:51:05.750Z,67.50
2022-10-10T12:53:35.001Z,67.50
2022-10-10T12:56:03.979Z,68.20
2022-10-10T12:58:34.792Z,68.20
2022-10-10T13:01:05.667Z,67.80
2022-10-10T13:03:38.867Z,67.80
2022-10-10T13:06:17.217Z,67.20
2022-10-10T13:08:45.529Z,67.80
2022-10-10T13:11:15.264Z,68.10
2022-10-10T13:13:51.109Z,67.30
2022-10-10T13:16:20.840Z,67.60
2022-10-10T13:18:53.479Z,68.10
2022-10-10T13:21:23.534Z,67.90
2022-10-10T13:26:47.881Z,67.70
2022-10-10T13:29:24.555Z,67.80
2022-10-10T13:31:53.826Z,67.10
2022-10-10T13:34:27.312Z,66.90
2022-10-10T13:36:57.651Z,68.20
2022-10-10T13:39:26.548Z,67.50
2022-10-10T13:41:55.760Z,67.40
2022-10-10T13:44:25.936Z,66.80
2022-10-10T13:46:53.817Z,66.40
2022-10-10T13:49:26.798Z,66.20
2022-10-10T13:52:06.644Z,66.30
2022-10-10T13:54:39.529Z,65.90
2022-10-10T13:57:14.686Z,65.70
2022-10-10T13:59:42.965Z,65.70
2022-10-10T14:02:15.118Z,65.50
2022-10-10T14:04:50.006Z,65.30
2022-10-10T14:07:21.829Z,64.40
2022-10-10T14:09:54.742Z,64.30
2022-10-10T14:12:28.385Z,63.90
2022-10-10T14:14:58.444Z,63.20
2022-10-10T14:17:27.404Z,63.50
2022-10-10T14:19:56.671Z,63.50
2022-10-10T14:22:24.448Z,63.00
2022-10-10T14:24:52.183Z,63.00
2022-10-10T14:27:25.569Z,62.90
2022-10-10T14:29:54.811Z,62.60
2022-10-10T14:32:23.650Z,62.50
2022-10-10T14:34:51.853Z,62.40
2022-10-10T14:37:24.736Z,62.20
2022-10-10T14:39:52.793Z,61.90
2022-10-10T14:42:22.459Z,61.20
2022-10-10T14:44:50.245Z,61.40
2022-10-10T14:47:19.240Z,61.30
2022-10-10T14:49:47.329Z,61.40
2022-10-10T14:52:15.289Z,61.60
2022-10-10T14:54:44.485Z,61.30
2022-10-10T14:57:14.193Z,61.30
2022-10-10T14:59:49.695Z,61.60
2022-10-10T15:02:22.638Z,61.10
2022-10-10T15:04:50.537Z,61.90
2022-10-10T15:07:18.389Z,61.20
2022-10-10T15:12:39.443Z,60.40
2022-10-10T15:15:08.667Z,60.30
2022-10-10T15:17:36.469Z,60.10
2022-10-10T15:20:06.428Z,60.20
2022-10-10T15:22:34.547Z,60.50
2022-10-10T15:25:03.696Z,60.20
2022-10-10T15:27:32.735Z,60.90
2022-10-10T15:30:00.802Z,60.10
2022-10-10T15:32:28.617Z,60.20
2022-10-10T15:34:57.009Z,60.10
2022-10-10T15:37:27.252Z,59.70
2022-10-10T15:39:55.130Z,58.90
2022-10-10T15:42:24.344Z,59.00
2022-10-10T15:44:52.302Z,59.20
2022-10-10T15:47:20.698Z,59.30
2022-10-10T15:49:49.048Z,59.40
2022-10-10T15:52:17.381Z,59.10
2022-10-10T15:54:48.392Z,59.10
2022-10-10T15:57:18.596Z,58.90
2022-10-10T15:59:48.076Z,58.50
2022-10-10T16:02:16.508Z,58.60
2022-10-10T16:04:45.506Z,58.90
2022-10-10T16:07:30.564Z,59.20
2022-10-10T16:10:01.183Z,58.90
2022-10-10T16:12:29.180Z,59.30
2022-10-10T16:14:59.624Z,58.50
2022-10-10T16:17:29.061Z,59.00
2022-10-10T16:19:56.881Z,58.90
2022-10-10T16:22:24.665Z,59.00
2022-10-10T16:25:17.288Z,58.70
2022-10-10T16:27:40.391Z,58.50
2022-10-10T16:30:11.202Z,58.90
2022-10-10T16:32:42.317Z,59.00
2022-10-10T16:35:11.079Z,58.90
2022-10-10T16:37:39.333Z,58.50
2022-10-10T16:40:08.396Z,58.60
2022-10-10T16:42:36.430Z,58.30
2022-10-10T16:45:04.605Z,58.50
2022-10-10T16:47:33.842Z,58.90
2022-10-10T16:50:01.661Z,58.80
2022-10-10T16:52:29.463Z,58.60
2022-10-10T16:54:57.246Z,58.70
2022-10-10T16:57:24.956Z,58.90
2022-10-10T16:59:52.805Z,58.90
2022-10-10T17:02:24.214Z,58.80
2022-10-10T17:04:53.490Z,59.30
2022-10-10T17:07:21.299Z,58.50
2022-10-10T17:09:49.076Z,59.00
2022-10-10T17:12:16.970Z,58.80
2022-10-10T17:14:44.776Z,58.90
2022-10-10T17:17:13.597Z,59.00
2022-10-10T17:19:41.829Z,59.10
2022-10-10T17:22:10.951Z,59.20
2022-10-10T17:24:38.683Z,59.20
2022-10-10T17:27:06.485Z,59.10
2022-10-10T17:29:34.248Z,60.10
2022-10-10T17:32:06.204Z,59.00
2022-10-10T17:34:34.774Z,59.20
2022-10-10T17:37:02.669Z,59.20
2022-10-10T17:39:32.317Z,59.10
2022-10-10T17:42:00.360Z,59.20
2022-10-10T17:44:28.303Z,59.30
2022-10-10T17:46:56.055Z,59.20
2022-10-10T17:49:24.242Z,58.90
2022-10-10T17:51:52.114Z,58.80
2022-10-10T17:54:20.083Z,59.10
2022-10-10T17:56:49.197Z,59.00
2022-10-10T17:59:17.077Z,59.10
2022-10-10T18:01:44.863Z,59.00
2022-10-10T18:04:15.754Z,58.60
2022-10-10T18:06:43.638Z,59.00
2022-10-10T18:09:11.586Z,59.20
2022-10-10T18:11:39.659Z,59.40
2022-10-10T18:14:08.800Z,59.40
2022-10-10T18:16:36.669Z,59.40
2022-10-10T18:19:05.978Z,59.40
2022-10-10T18:21:34.120Z,59.20
2022-10-10T18:24:01.913Z,59.20
2022-10-10T18:26:31.886Z,59.40
2022-10-10T18:31:40.986Z,59.30
2022-10-10T18:34:09.024Z,59.00
2022-10-10T18:36:38.580Z,59.00
2022-10-10T18:39:08.006Z,59.00
2022-10-10T18:41:36.665Z,58.80
2022-10-10T18:44:06.709Z,59.00
2022-10-10T18:46:35.652Z,58.90
2022-10-10T18:49:06.196Z,58.80
2022-10-10T18:51:34.279Z,58.90
2022-10-10T18:54:04.317Z,59.00
2022-10-10T18:56:33.767Z,59.10
2022-10-10T18:59:03.321Z,59.10
2022-10-10T19:01:35.094Z,59.00
2022-10-10T19:04:05.540Z,59.10
2022-10-10T19:06:33.516Z,59.20
2022-10-10T19:09:02.761Z,60.10
2022-10-10T19:11:32.286Z,59.10
2022-10-10T19:14:01.968Z,59.30
2022-10-10T19:16:30.394Z,59.40
2022-10-10T19:18:58.879Z,59.40
2022-10-10T19:21:28.757Z,59.50
2022-10-10T19:23:56.878Z,59.30
2022-10-10T19:26:24.624Z,59.00
2022-10-10T19:28:52.645Z,59.50
2022-10-10T19:31:22.349Z,59.40
2022-10-10T19:33:53.160Z,59.50
2022-10-10T19:36:21.061Z,59.50
2022-10-10T19:38:50.396Z,59.60
2022-10-10T19:41:18.529Z,59.60
2022-10-10T19:43:49.407Z,59.60
2022-10-10T19:46:19.208Z,59.60
2022-10-10T19:48:46.989Z,59.30
2022-10-10T19:51:16.232Z,59.40
2022-10-10T19:53:44.723Z,59.10
2022-10-10T19:56:15.755Z,59.00
2022-10-10T19:58:44.402Z,58.90
2022-10-10T20:01:14.526Z,58.90
2022-10-10T20:03:42.908Z,58.70
2022-10-10T20:06:11.132Z,58.40
2022-10-10T20:08:39.089Z,58.50
2022-10-10T20:11:06.966Z,58.40
2022-10-10T20:13:36.203Z,58.00
2022-10-10T20:16:06.695Z,58.20
2022-10-10T20:18:36.531Z,58.10
2022-10-10T20:21:14.242Z,58.20
2022-10-10T20:23:44.302Z,58.40
2022-10-10T20:26:14.644Z,58.60
2022-10-10T20:28:44.484Z,58.50
2022-10-10T20:31:19.812Z,58.80
2022-10-10T20:33:48.267Z,59.10
2022-10-10T20:36:16.523Z,58.90
2022-10-10T20:38:44.483Z,58.80
2022-10-10T20:41:12.611Z,59.10
2022-10-10T20:43:40.511Z,59.30
2022-10-10T20:46:11.139Z,59.10
2022-10-10T20:48:39.374Z,59.10
2022-10-10T20:51:09.548Z,59.20
2022-10-10T20:53:38.744Z,59.40
2022-10-10T20:56:08.041Z,59.70
2022-10-10T20:58:37.764Z,59.90
2022-10-10T21:01:07.805Z,60.10
2022-10-10T21:03:37.281Z,60.10
2022-10-10T21:06:08.006Z,60.00
2022-10-10T21:08:36.058Z,60.10
2022-10-10T21:11:06.748Z,60.10
2022-10-10T21:13:36.218Z,60.20
2022-10-10T21:16:07.332Z,60.30
2022-10-10T21:18:36.765Z,60.50
2022-10-10T21:21:06.467Z,60.50
2022-10-10T21:23:36.828Z,60.50
2022-10-10T21:26:06.293Z,60.50
2022-10-10T21:28:35.080Z,60.50
2022-10-10T21:31:03.184Z,60.60
2022-10-10T21:33:31.335Z,60.60
2022-10-10T21:36:00.449Z,60.50
2022-10-10T21:38:28.250Z,60.60
2022-10-10T21:40:56.030Z,60.50
2022-10-10T21:43:23.856Z,60.50
2022-10-10T21:45:51.675Z,60.60
2022-10-10T21:48:19.420Z,60.60
2022-10-10T21:50:47.174Z,60.50
2022-10-10T21:53:16.267Z,60.50
2022-10-10T21:55:43.984Z,60.80
2022-10-10T21:58:11.720Z,61.00
2022-10-10T22:00:39.580Z,61.10
2022-10-10T22:03:07.499Z,61.10
2022-10-10T22:05:35.681Z,61.20
2022-10-10T22:08:04.409Z,61.10
2022-10-10T22:10:34.236Z,61.00
2022-10-10T22:13:03.436Z,61.00
2022-10-10T22:15:31.342Z,61.70
2022-10-10T22:17:59.293Z,61.20
2022-10-10T22:20:27.088Z,61.20
2022-10-10T22:22:54.828Z,61.40
2022-10-10T22:25:22.872Z,61.40
2022-10-10T22:27:56.322Z,61.50
2022-10-10T22:30:24.931Z,61.40
2022-10-10T22:32:52.730Z,61.50
2022-10-10T22:35:20.616Z,61.60
2022-10-10T22:37:48.346Z,61.50
2022-10-10T22:40:16.430Z,61.60
2022-10-10T22:42:44.471Z,61.60
2022-10-10T22:45:13.561Z,61.80
2022-10-10T22:47:41.386Z,61.90
2022-10-10T22:50:10.522Z,62.00
2022-10-10T22:52:38.495Z,62.00
2022-10-10T22:55:07.504Z,61.90
2022-10-10T22:57:35.721Z,62.10
2022-10-10T23:00:04.094Z,62.00
2022-10-10T23:02:33.222Z,62.00
2022-10-10T23:05:02.777Z,61.90
2022-10-10T23:07:30.868Z,62.20
2022-10-10T23:09:58.653Z,62.20
2022-10-10T23:12:26.468Z,62.30
2022-10-10T23:14:54.247Z,62.20
2022-10-10T23:17:22.006Z,62.10
2022-10-10T23:19:51.081Z,61.90
2022-10-10T23:22:18.859Z,62.20
2022-10-10T23:24:47.017Z,62.00
2022-10-10T23:27:14.744Z,62.10
2022-10-10T23:29:42.825Z,62.30
2022-10-10T23:32:10.581Z,62.30
2022-10-10T23:34:38.319Z,62.30
2022-10-10T23:37:07.416Z,62.30
2022-10-10T23:39:35.181Z,62.60
2022-10-10T23:42:02.973Z,62.50
2022-10-10T23:44:30.701Z,62.50
2022-10-10T23:46:58.416Z,62.70
2022-10-10T23:49:26.187Z,62.60
2022-10-10T23:51:53.916Z,62.80
2022-10-10T23:54:23.029Z,62.70
2022-10-10T23:56:50.781Z,62.80
2022-10-10T23:59:18.624Z,62.80
